Time;durP1;ratioP1;P1;durP2;ratioP2;P2;SDS_P1;SDS_P2;PMS_P1;PMS_P2;Temp;Humidity;BMP_temperature;BMP_pressure;BME280_temperature;BME280_humidity;BME280_pressure;Samples;Min_cycle;Max_cycle;Signal;HPM_P1;HPM_P2
2021/06/10 00:02:21;;;;;;;16.92;8.02;;;538.00;2176.00;;;;;;4847191;29;20105;-89
2021/06/10 00:04:46;;;;;;;10.63;7.43;;;537.90;2176.00;;;;;;4846920;29;20061;-86
2021/06/10 00:07:14;;;;;;;14.20;7.75;;;537.90;2176.00;;;;;;4841053;29;20094;-88
2021/06/10 00:09:41;;;;;;;13.98;8.68;;;537.90;2176.00;;;;;;4839222;29;20057;-87
2021/06/10 00:12:08;;;;;;;9.70;7.88;;;537.80;2176.00;;;;;;4843004;29;20028;-87
2021/06/10 00:14:34;;;;;;;9.60;7.90;;;537.80;2176.00;;;;;;4864902;29;20085;-87
2021/06/10 00:17:00;;;;;;;9.07;7.45;;;537.70;2201.60;;;;;;4860449;29;20033;-89
2021/06/10 00:19:26;;;;;;;10.30;7.93;;;537.60;2201.60;;;;;;4857379;29;20033;-88
2021/06/10 00:21:51;;;;;;;10.82;9.15;;;512.90;2176.00;;;;;;4853184;29;20052;-90
2021/06/10 00:24:17;;;;;;;8.60;7.65;;;512.90;2176.00;;;;;;4845253;29;20482;-89
2021/06/10 00:26:43;;;;;;;9.88;8.27;;;512.70;2201.60;;;;;;4845320;29;20045;-90
2021/06/10 00:29:09;;;;;;;11.10;8.60;;;512.60;2201.60;;;;;;4840487;29;20032;-90
2021/06/10 00:31:35;;;;;;;10.15;8.43;;;512.60;2227.20;;;;;;4855074;29;20147;-89
2021/06/10 00:34:01;;;;;;;9.23;6.85;;;512.50;2227.20;;;;;;4860707;29;20112;-89
2021/06/10 00:36:27;;;;;;;10.88;8.60;;;512.50;2227.20;;;;;;4845229;29;20029;-89
2021/06/10 00:38:52;;;;;;;12.13;8.02;;;512.40;2252.80;;;;;;4845267;29;20116;-90
2021/06/10 00:41:19;;;;;;;10.40;7.75;;;512.30;2252.80;;;;;;4855917;29;20093;-89
2021/06/10 00:43:46;;;;;;;11.95;9.07;;;512.20;2252.80;;;;;;4858208;29;20036;-91
2021/06/10 00:46:12;;;;;;;10.50;7.78;;;512.20;2278.40;;;;;;4860571;29;20140;-90
2021/06/10 00:48:38;;;;;;;8.98;8.05;;;512.10;2278.40;;;;;;4853604;29;20443;-89
2021/06/10 00:51:04;;;;;;;13.30;8.48;;;512.00;2278.40;;;;;;4855793;29;20033;-89
2021/06/10 00:53:34;;;;;;;9.60;7.72;;;512.00;2278.40;;;;;;4857374;29;20069;-90
2021/06/10 00:56:01;;;;;;;11.00;8.05;;;512.00;2278.40;;;;;;4860090;29;20030;-88
2021/06/10 00:58:31;;;;;;;9.35;7.55;;;512.00;2304.00;;;;;;4845806;29;20044;-90
2021/06/10 01:00:57;;;;;;;11.02;7.63;;;487.30;2304.00;;;;;;4845747;29;20440;-91
2021/06/10 01:03:23;;;;;;;12.75;8.23;;;487.30;2304.00;;;;;;4828041;29;20046;-91
2021/06/10 01:05:52;;;;;;;9.18;7.55;;;487.20;2304.00;;;;;;4848663;29;20040;-87
2021/06/10 01:08:30;;;;;;;11.25;8.57;;;487.30;2304.00;;;;;;4862656;29;20500;-88
2021/06/10 01:11:10;;;;;;;13.27;8.38;;;487.20;2304.00;;;;;;4863253;29;20025;-90
2021/06/10 01:14:01;;;;;;;11.07;9.00;;;487.20;2329.60;;;;;;4853546;29;20104;-89
2021/06/10 01:16:32;;;;;;;12.93;8.32;;;487.20;2329.60;;;;;;4861403;29;20529;-88
2021/06/10 01:19:02;;;;;;;8.93;8.02;;;487.20;2329.60;;;;;;4863511;29;20057;-88
2021/06/10 01:21:29;;;;;;;10.25;8.02;;;487.10;2329.60;;;;;;4878777;29;20084;-88
2021/06/10 01:24:29;;;;;;;10.82;8.02;;;487.10;2329.60;;;;;;4860266;29;20032;-88
2021/06/10 01:27:13;;;;;;;11.73;9.48;;;487.00;2355.20;;;;;;4861232;29;20104;-88
2021/06/10 01:29:39;;;;;;;9.52;8.55;;;486.90;2355.20;;;;;;4867311;29;20113;-89
2021/06/10 01:32:06;;;;;;;11.57;8.52;;;486.90;2380.80;;;;;;4844861;29;20150;-88
2021/06/10 01:34:33;;;;;;;10.77;8.43;;;486.90;2380.80;;;;;;4857772;29;20025;-89
2021/06/10 01:37:01;;;;;;;14.38;8.85;;;486.90;2380.80;;;;;;4853932;29;20057;-88
2021/06/10 01:39:28;;;;;;;8.98;8.05;;;486.80;2380.80;;;;;;4858813;29;20052;-87
2021/06/10 01:41:54;;;;;;;11.75;9.07;;;486.80;2380.80;;;;;;4848054;29;20037;-87
2021/06/10 01:44:22;;;;;;;10.82;8.98;;;486.80;2380.80;;;;;;4851856;29;20479;-88
2021/06/10 01:46:50;;;;;;;10.27;9.05;;;486.70;2380.80;;;;;;4853551;29;20069;-87
2021/06/10 01:49:17;;;;;;;12.38;7.90;;;486.70;2380.80;;;;;;4847929;29;20085;-88
2021/06/10 01:51:43;;;;;;;10.60;8.63;;;486.70;2380.80;;;;;;4848144;29;20029;-88
2021/06/10 01:54:11;;;;;;;14.65;8.15;;;486.60;2380.80;;;;;;4866774;29;20028;-88
2021/06/10 01:56:38;;;;;;;9.63;8.63;;;486.60;2380.80;;;;;;4850538;29;20044;-88
2021/06/10 01:59:05;;;;;;;12.80;8.57;;;486.60;2380.80;;;;;;4859617;29;20143;-90
2021/06/10 02:01:32;;;;;;;10.15;7.65;;;486.60;2380.80;;;;;;4853288;29;20029;-87
2021/06/10 02:03:59;;;;;;;12.75;9.02;;;486.50;2380.80;;;;;;4882654;29;20033;-87
2021/06/10 02:06:27;;;;;;;10.30;9.18;;;486.50;2380.80;;;;;;4866246;29;20021;-87
2021/06/10 02:08:54;;;;;;;13.93;10.00;;;486.40;2380.80;;;;;;4857646;29;20120;-86
2021/06/10 02:11:20;;;;;;;11.00;9.23;;;461.70;2380.80;;;;;;4875637;29;20053;-85
2021/06/10 02:13:48;;;;;;;14.35;9.35;;;461.70;2380.80;;;;;;4842934;29;20028;-85
2021/06/10 02:16:16;;;;;;;12.15;9.65;;;461.70;2380.80;;;;;;4865931;29;20068;-88
2021/06/10 02:18:46;;;;;;;11.52;8.32;;;461.70;2380.80;;;;;;4866184;29;20036;-88
2021/06/10 02:21:13;;;;;;;10.45;8.40;;;461.60;2380.80;;;;;;4866247;29;20045;-87
2021/06/10 02:23:41;;;;;;;11.57;9.63;;;461.60;2380.80;;;;;;4857242;29;20046;-87
2021/06/10 02:26:08;;;;;;;10.45;9.15;;;461.50;2380.80;;;;;;4849784;29;20029;-89
2021/06/10 02:28:35;;;;;;;10.90;9.57;;;461.50;2380.80;;;;;;4860055;29;20029;-89
2021/06/10 02:31:04;;;;;;;10.05;8.15;;;461.40;2380.80;;;;;;4847025;29;20025;-87
2021/06/10 02:33:30;;;;;;;12.52;8.98;;;461.40;2380.80;;;;;;4866021;29;20029;-87
2021/06/10 02:35:56;;;;;;;11.20;8.40;;;461.30;2380.80;;;;;;4858791;29;20051;-86
2021/06/10 02:38:23;;;;;;;12.45;8.85;;;461.30;2380.80;;;;;;4859723;29;20085;-86
2021/06/10 02:40:52;;;;;;;12.05;8.43;;;461.20;2380.80;;;;;;4849735;29;20045;-86
2021/06/10 02:43:18;;;;;;;9.85;8.25;;;461.20;2380.80;;;;;;4835443;29;20045;-86
2021/06/10 02:45:47;;;;;;;13.82;8.48;;;461.10;2380.80;;;;;;4846284;29;20566;-86
2021/06/10 02:48:14;;;;;;;10.55;8.23;;;461.10;2380.80;;;;;;4863750;29;20117;-87
2021/06/10 02:50:41;;;;;;;14.80;8.90;;;461.10;2380.80;;;;;;4859947;29;20029;-87
2021/06/10 02:53:14;;;;;;;12.02;8.63;;;461.10;2380.80;;;;;;4847479;29;20129;-88
2021/06/10 02:55:43;;;;;;;14.35;8.38;;;461.10;2380.80;;;;;;4855605;29;20096;-85
2021/06/10 02:58:14;;;;;;;9.60;8.15;;;461.00;2380.80;;;;;;4840144;29;20036;-86
2021/06/10 03:00:40;;;;;;;9.85;8.38;;;461.00;2380.80;;;;;;4842104;29;20053;-85
2021/06/10 03:03:12;;;;;;;12.88;9.23;;;460.90;2380.80;;;;;;4843496;29;20038;-86
2021/06/10 03:05:39;;;;;;;10.35;7.80;;;461.00;2380.80;;;;;;4834527;29;20034;-85
2021/06/10 03:08:06;;;;;;;10.70;8.52;;;461.00;2380.80;;;;;;4841470;29;20033;-84
2021/06/10 03:10:33;;;;;;;10.82;8.70;;;461.00;2380.80;;;;;;4851102;29;20030;-84
2021/06/10 03:13:00;;;;;;;10.60;9.30;;;461.00;2380.80;;;;;;4842950;29;20034;-83
2021/06/10 03:15:28;;;;;;;10.35;8.77;;;461.00;2380.80;;;;;;4853769;29;20049;-83
2021/06/10 03:17:56;;;;;;;10.75;8.57;;;461.10;2380.80;;;;;;4849209;29;20076;-82
2021/06/10 03:20:22;;;;;;;12.50;8.82;;;461.10;2380.80;;;;;;4848694;29;20038;-82
2021/06/10 03:22:48;;;;;;;13.02;8.32;;;461.20;2380.80;;;;;;4843713;29;20053;-84
2021/06/10 03:25:14;;;;;;;10.70;9.02;;;461.20;2380.80;;;;;;4844131;29;20086;-86
2021/06/10 03:27:41;;;;;;;11.05;8.20;;;461.30;2380.80;;;;;;4851890;29;20025;-86
2021/06/10 03:30:08;;;;;;;11.20;8.75;;;461.30;2380.80;;;;;;4843535;29;20484;-85
2021/06/10 03:32:35;;;;;;;9.63;8.40;;;461.30;2380.80;;;;;;4843263;29;20090;-85
2021/06/10 03:35:03;;;;;;;11.43;7.93;;;461.30;2380.80;;;;;;4843388;29;20037;-85
2021/06/10 03:37:30;;;;;;;9.43;8.43;;;461.40;2380.80;;;;;;4849244;29;20097;-85
2021/06/10 03:39:57;;;;;;;9.27;6.85;;;461.40;2380.80;;;;;;4843135;29;20041;-85
2021/06/10 03:42:23;;;;;;;10.00;8.77;;;461.40;2380.80;;;;;;4842569;29;20518;-86
2021/06/10 03:44:49;;;;;;;9.23;7.60;;;461.50;2380.80;;;;;;4843551;29;20065;-87
2021/06/10 03:47:16;;;;;;;10.60;7.55;;;461.50;2380.80;;;;;;4868673;29;20037;-88
2021/06/10 03:49:42;;;;;;;12.48;8.13;;;461.70;2380.80;;;;;;4845141;29;20026;-88
2021/06/10 03:52:09;;;;;;;14.80;8.02;;;461.70;2380.80;;;;;;4851606;29;20487;-86
2021/06/10 03:54:34;;;;;;;9.48;7.80;;;461.70;2380.80;;;;;;4858271;29;20064;-84
2021/06/10 03:57:00;;;;;;;11.00;8.18;;;461.70;2380.80;;;;;;4845136;29;20061;-87
2021/06/10 03:59:26;;;;;;;8.43;7.20;;;486.50;2380.80;;;;;;4843288;29;20036;-85
2021/06/10 04:01:52;;;;;;;11.13;7.95;;;486.60;2380.80;;;;;;4845212;29;20145;-86
2021/06/10 04:04:18;;;;;;;10.32;7.70;;;486.60;2380.80;;;;;;4844876;29;20059;-88
2021/06/10 04:06:44;;;;;;;10.50;7.45;;;486.60;2380.80;;;;;;4853342;29;20032;-85
2021/06/10 04:09:10;;;;;;;9.38;7.57;;;486.70;2380.80;;;;;;4844048;29;20042;-83
2021/06/10 04:11:39;;;;;;;10.63;6.55;;;486.80;2380.80;;;;;;4860987;29;20054;-84
2021/06/10 04:14:06;;;;;;;9.38;6.97;;;486.90;2380.80;;;;;;4860615;29;20029;-84
2021/06/10 04:16:32;;;;;;;9.85;7.25;;;487.00;2380.80;;;;;;4860598;29;20033;-83
2021/06/10 04:18:58;;;;;;;14.02;8.88;;;487.10;2380.80;;;;;;4859290;29;20104;-82
2021/06/10 04:21:24;;;;;;;9.38;6.75;;;487.10;2380.80;;;;;;4860859;29;20548;-83
2021/06/10 04:23:51;;;;;;;8.73;6.85;;;487.00;2380.80;;;;;;4837399;29;20053;-83
2021/06/10 04:26:17;;;;;;;9.55;7.55;;;487.10;2380.80;;;;;;4844575;29;20025;-85
2021/06/10 04:28:46;;;;;;;9.48;7.80;;;487.10;2380.80;;;;;;4860231;29;20033;-83
2021/06/10 04:31:14;;;;;;;11.30;7.35;;;487.30;2380.80;;;;;;4861388;29;20483;-84
2021/06/10 04:33:40;;;;;;;8.93;7.35;;;487.30;2380.80;;;;;;4841568;29;20029;-84
2021/06/10 04:36:07;;;;;;;9.27;7.38;;;512.00;2380.80;;;;;;4832716;29;20157;-84
2021/06/10 04:38:33;;;;;;;10.85;8.00;;;512.00;2380.80;;;;;;4843879;29;20044;-83
2021/06/10 04:40:59;;;;;;;9.73;7.40;;;512.00;2380.80;;;;;;4835378;29;20030;-84
2021/06/10 04:43:25;;;;;;;13.75;8.20;;;512.10;2380.80;;;;;;4844209;29;20030;-84
2021/06/10 04:45:51;;;;;;;9.45;7.55;;;512.20;2380.80;;;;;;4844974;29;20056;-84
2021/06/10 04:48:16;;;;;;;8.95;6.90;;;512.30;2380.80;;;;;;4841997;29;20044;-83
2021/06/10 04:50:42;;;;;;;10.73;7.30;;;512.40;2380.80;;;;;;4857662;29;20101;-84
2021/06/10 04:53:08;;;;;;;11.93;8.32;;;512.50;2380.80;;;;;;4860522;29;20052;-84
2021/06/10 04:55:34;;;;;;;7.90;7.10;;;512.50;2380.80;;;;;;4850275;29;20034;-84
2021/06/10 04:58:01;;;;;;;11.32;7.32;;;512.70;2380.80;;;;;;4844030;29;20025;-84
2021/06/10 05:00:26;;;;;;;8.25;6.43;;;512.80;2380.80;;;;;;4843815;29;20077;-84
2021/06/10 05:02:52;;;;;;;9.02;7.50;;;512.90;2380.80;;;;;;4860190;29;20424;-84
2021/06/10 05:05:18;;;;;;;10.52;7.63;;;537.70;2406.40;;;;;;4859398;29;20033;-84
2021/06/10 05:07:44;;;;;;;12.35;7.50;;;538.00;2380.80;;;;;;4841634;29;20045;-83
2021/06/10 05:10:10;;;;;;;8.00;6.20;;;538.20;2355.20;;;;;;4858825;29;20407;-83
2021/06/10 05:12:36;;;;;;;8.05;6.50;;;538.40;2355.20;;;;;;4849825;29;20112;-83
2021/06/10 05:15:04;;;;;;;10.07;6.78;;;538.50;2355.20;;;;;;4842226;29;20077;-82
2021/06/10 05:17:29;;;;;;;8.40;6.60;;;563.20;2355.20;;;;;;4841547;29;20029;-83
2021/06/10 05:19:55;;;;;;;9.82;6.90;;;563.40;2355.20;;;;;;4858500;29;20033;-83
2021/06/10 05:22:21;;;;;;;10.07;7.15;;;563.40;2355.20;;;;;;4841647;29;20030;-83
2021/06/10 05:24:47;;;;;;;9.40;6.20;;;563.70;2329.60;;;;;;4841812;29;20443;-82
2021/06/10 05:27:12;;;;;;;11.30;7.40;;;564.00;2304.00;;;;;;4843775;29;20043;-82
2021/06/10 05:29:39;;;;;;;14.63;7.40;;;588.90;2252.80;;;;;;4839415;29;20026;-82
2021/06/10 05:32:08;;;;;;;10.23;7.40;;;589.30;2227.20;;;;;;4855796;29;20467;-84
2021/06/10 05:34:34;;;;;;;10.13;7.43;;;589.70;2201.60;;;;;;4838165;29;20037;-84
2021/06/10 05:37:00;;;;;;;7.75;5.95;;;614.90;2150.40;;;;;;4841146;29;20181;-84
2021/06/10 05:39:26;;;;;;;13.20;5.75;;;615.30;2099.20;;;;;;4837021;29;20592;-85
2021/06/10 05:41:53;;;;;;;9.45;6.55;;;640.20;2073.60;;;;;;4840836;29;20037;-84
2021/06/10 05:44:19;;;;;;;12.57;6.18;;;640.50;1996.80;;;;;;4840201;29;20073;-85
2021/06/10 05:46:48;;;;;;;9.88;4.70;;;640.90;1996.80;;;;;;4839040;29;20581;-85
2021/06/10 05:49:14;;;;;;;8.52;5.55;;;665.70;1996.80;;;;;;4839383;29;20071;-83
2021/06/10 05:51:39;;;;;;;5.55;4.88;;;665.90;1971.20;;;;;;4857987;29;20045;-84
2021/06/10 05:54:05;;;;;;;7.30;5.32;;;665.90;1945.60;;;;;;4860376;29;20036;-84
2021/06/10 05:56:31;;;;;;;9.10;5.75;;;666.00;1945.60;;;;;;4841638;29;20407;-84
2021/06/10 05:58:57;;;;;;;9.50;5.80;;;666.10;1945.60;;;;;;4834504;29;20070;-84
2021/06/10 06:01:22;;;;;;;8.95;6.30;;;666.20;1920.00;;;;;;4858001;29;20398;-84
2021/06/10 06:03:48;;;;;;;16.83;6.85;;;666.20;1920.00;;;;;;4840843;29;20050;-84
2021/06/10 06:06:18;;;;;;;9.05;5.68;;;666.40;1920.00;;;;;;4841487;29;20508;-84
2021/06/10 06:08:43;;;;;;;8.70;5.45;;;691.20;1894.40;;;;;;4850090;29;20032;-85
2021/06/10 06:11:09;;;;;;;8.75;5.88;;;691.50;1894.40;;;;;;4858171;29;20026;-84
2021/06/10 06:16:11;;;;;;;13.10;6.03;;;691.50;1868.80;;;;;;4858394;29;20040;-84
2021/06/10 06:18:39;;;;;;;8.52;5.20;;;691.60;1843.20;;;;;;4857720;29;20075;-85
2021/06/10 06:21:05;;;;;;;8.85;5.65;;;691.50;1868.80;;;;;;4860004;29;20096;-84
2021/06/10 06:23:31;;;;;;;9.57;5.50;;;691.60;1868.80;;;;;;4844229;29;20033;-85
2021/06/10 06:25:58;;;;;;;10.20;5.93;;;691.80;1843.20;;;;;;4844894;29;20034;-85
2021/06/10 06:28:24;;;;;;;7.78;5.53;;;691.50;1894.40;;;;;;4844139;29;20064;-84
2021/06/10 06:30:50;;;;;;;6.28;5.18;;;691.50;1868.80;;;;;;4847875;29;20197;-84
2021/06/10 06:33:16;;;;;;;6.28;5.68;;;691.50;1868.80;;;;;;4844951;29;20036;-84
2021/06/10 06:35:43;;;;;;;7.97;5.00;;;691.50;1868.80;;;;;;4847177;29;20028;-84
2021/06/10 06:38:09;;;;;;;6.05;4.90;;;691.50;1843.20;;;;;;4844357;29;20513;-84
2021/06/10 06:40:35;;;;;;;8.82;5.18;;;691.50;1843.20;;;;;;4861604;29;20037;-84
2021/06/10 06:43:01;;;;;;;11.48;5.63;;;691.40;1843.20;;;;;;4845615;29;20495;-84
2021/06/10 06:45:27;;;;;;;9.50;6.10;;;691.20;1868.80;;;;;;4862264;29;20053;-84
2021/06/10 06:47:53;;;;;;;7.25;4.50;;;691.40;1843.20;;;;;;4845221;29;20045;-85
2021/06/10 06:50:19;;;;;;;8.68;5.40;;;691.70;1817.60;;;;;;4861809;29;20487;-85
2021/06/10 06:52:45;;;;;;;8.32;5.72;;;691.90;1843.20;;;;;;4848049;29;20036;-84
2021/06/10 06:55:11;;;;;;;6.72;5.90;;;716.80;1843.20;;;;;;4861418;29;20036;-84
2021/06/10 06:57:37;;;;;;;10.00;5.38;;;692.00;1766.40;;;;;;4859505;29;20368;-84
2021/06/10 07:00:06;;;;;;;8.63;5.45;;;691.90;1792.00;;;;;;4881170;29;20033;-84
2021/06/10 07:02:32;;;;;;;7.15;4.55;;;692.00;1792.00;;;;;;4837695;29;20053;-83
2021/06/10 07:04:58;;;;;;;13.95;4.72;;;691.90;1792.00;;;;;;4861794;29;20503;-85
2021/06/10 07:07:24;;;;;;;8.70;4.60;;;692.00;1766.40;;;;;;4864624;29;20056;-84
2021/06/10 07:09:49;;;;;;;7.88;4.70;;;692.00;1766.40;;;;;;4864228;29;20037;-83
2021/06/10 07:12:15;;;;;;;7.22;4.40;;;716.80;1792.00;;;;;;4849824;29;20480;-84
2021/06/10 07:14:41;;;;;;;11.30;5.22;;;716.90;1792.00;;;;;;4845036;29;20026;-84
2021/06/10 07:17:07;;;;;;;7.40;5.00;;;717.10;1792.00;;;;;;4845171;29;20135;-84
2021/06/10 07:19:32;;;;;;;7.82;5.40;;;717.20;1766.40;;;;;;4841386;29;20502;-84
2021/06/10 07:21:58;;;;;;;9.43;5.68;;;717.40;1740.80;;;;;;4858616;29;20509;-84
2021/06/10 07:24:24;;;;;;;6.95;4.97;;;717.40;1740.80;;;;;;4846917;29;20041;-84
2021/06/10 07:26:50;;;;;;;10.27;5.15;;;717.40;1740.80;;;;;;4854038;29;20041;-84
2021/06/10 07:29:16;;;;;;;7.13;5.28;;;717.70;1740.80;;;;;;4858635;29;20040;-83
2021/06/10 07:31:42;;;;;;;6.75;5.00;;;717.70;1664.00;;;;;;4861430;29;20078;-84
2021/06/10 07:34:08;;;;;;;13.68;6.95;;;742.70;1689.60;;;;;;4845047;29;20041;-82
2021/06/10 07:36:35;;;;;;;7.57;5.28;;;743.10;1664.00;;;;;;4841626;29;20094;-83
2021/06/10 07:39:07;;;;;;;8.00;5.05;;;768.00;1638.40;;;;;;4855528;29;20029;-84
2021/06/10 07:41:33;;;;;;;7.78;5.07;;;768.20;1612.80;;;;;;4856237;29;20030;-84
2021/06/10 07:43:59;;;;;;;6.00;5.00;;;768.50;1561.60;;;;;;4848783;29;20440;-84
2021/06/10 07:46:24;;;;;;;5.60;4.40;;;768.50;1536.00;;;;;;4856759;29;20053;-84
2021/06/10 07:48:50;;;;;;;7.57;5.68;;;768.30;1536.00;;;;;;4845970;29;20106;-83
2021/06/10 07:51:16;;;;;;;9.23;5.45;;;768.30;1561.60;;;;;;4845071;29;20394;-84
2021/06/10 07:53:42;;;;;;;6.40;4.50;;;768.60;1561.60;;;;;;4854152;29;20033;-83
2021/06/10 07:56:08;;;;;;;11.25;5.18;;;768.60;1561.60;;;;;;4863392;29;20081;-83
2021/06/10 07:58:35;;;;;;;5.78;4.80;;;768.90;1536.00;;;;;;4857792;29;20530;-84
2021/06/10 08:01:02;;;;;;;8.23;4.78;;;793.60;1510.40;;;;;;4839565;29;20057;-83
2021/06/10 08:03:28;;;;;;;5.28;3.80;;;793.80;1510.40;;;;;;4856570;29;20025;-83
2021/06/10 08:05:56;;;;;;;8.65;4.90;;;793.80;1459.20;;;;;;4839430;29;20040;-82
2021/06/10 08:08:23;;;;;;;5.57;4.30;;;793.80;1459.20;;;;;;4841895;29;20628;-80
2021/06/10 08:10:53;;;;;;;6.60;4.28;;;794.30;1459.20;;;;;;4860903;29;20442;-82
2021/06/10 08:13:22;;;;;;;6.40;4.10;;;819.40;1408.00;;;;;;4842340;29;20579;-82
2021/06/10 08:15:50;;;;;;;5.47;3.78;;;819.30;1433.60;;;;;;4857880;29;20058;-82
2021/06/10 08:18:17;;;;;;;6.18;4.63;;;819.40;1408.00;;;;;;4860617;29;20036;-83
2021/06/10 08:20:43;;;;;;;9.38;4.65;;;819.20;1433.60;;;;;;4858261;29;20029;-82
2021/06/10 08:23:09;;;;;;;7.03;4.85;;;794.30;1433.60;;;;;;4860240;29;20077;-83
2021/06/10 08:25:35;;;;;;;8.02;4.80;;;794.10;1459.20;;;;;;4857979;29;20073;-82
2021/06/10 08:28:04;;;;;;;9.75;5.78;;;794.20;1433.60;;;;;;4837780;29;20046;-81
2021/06/10 08:30:31;;;;;;;6.20;5.30;;;794.50;1382.40;;;;;;4858657;29;20096;-81
2021/06/10 08:32:58;;;;;;;7.05;4.55;;;794.50;1382.40;;;;;;4836191;29;20138;-81
2021/06/10 08:35:24;;;;;;;7.35;3.95;;;819.60;1331.20;;;;;;4847051;29;20104;-81
2021/06/10 08:37:50;;;;;;;14.13;6.13;;;819.80;1305.60;;;;;;4843440;29;20473;-82
2021/06/10 08:40:15;;;;;;;5.90;4.30;;;819.70;1280.00;;;;;;4843359;29;20026;-81
2021/06/10 08:42:44;;;;;;;5.45;3.47;;;819.60;1254.40;;;;;;4845762;29;20056;-82
2021/06/10 08:45:12;;;;;;;7.05;4.20;;;819.70;1254.40;;;;;;4837995;29;20522;-82
2021/06/10 08:47:43;;;;;;;6.35;4.28;;;819.80;1254.40;;;;;;4830133;29;20472;-82
2021/06/10 08:50:12;;;;;;;7.70;4.10;;;819.60;1254.40;;;;;;4862397;29;20100;-82
2021/06/10 08:52:39;;;;;;;7.22;3.85;;;819.40;1280.00;;;;;;4845333;29;20025;-82
2021/06/10 08:55:07;;;;;;;13.73;6.28;;;794.30;1305.60;;;;;;4844889;29;20033;-81
2021/06/10 08:57:35;;;;;;;6.43;4.45;;;794.10;1331.20;;;;;;4856822;29;20603;-82
2021/06/10 09:00:01;;;;;;;9.15;3.80;;;819.20;1305.60;;;;;;4841407;29;20533;-82
2021/06/10 09:02:27;;;;;;;5.90;4.78;;;819.30;1280.00;;;;;;4842852;29;20403;-81
2021/06/10 09:05:00;;;;;;;8.43;4.75;;;819.50;1254.40;;;;;;4857443;29;20093;-82
2021/06/10 09:07:36;;;;;;;8.05;3.30;;;844.80;1254.40;;;;;;4839648;29;20030;-82
2021/06/10 09:10:04;;;;;;;9.23;4.55;;;820.10;1100.80;;;;;;4861213;29;20036;-81
2021/06/10 09:12:49;;;;;;;9.43;4.82;;;819.70;1152.00;;;;;;4853879;29;20053;-82
2021/06/10 09:15:17;;;;;;;9.23;3.90;;;819.70;1203.20;;;;;;4859051;29;20031;-82
2021/06/10 09:17:43;;;;;;;8.98;4.45;;;819.60;1203.20;;;;;;4859109;29;20645;-82
2021/06/10 09:20:18;;;;;;;6.78;4.05;;;819.50;1203.20;;;;;;4842028;29;20030;-82
2021/06/10 09:22:45;;;;;;;8.63;5.40;;;819.80;1254.40;;;;;;4854371;29;20053;-82
2021/06/10 09:25:16;;;;;;;8.07;4.47;;;820.10;1254.40;;;;;;4840717;29;20040;-82
2021/06/10 09:27:52;;;;;;;5.05;4.53;;;819.80;1254.40;;;;;;4839249;29;20150;-81
2021/06/10 09:30:28;;;;;;;6.18;4.55;;;819.70;1280.00;;;;;;4840093;29;20037;-81
2021/06/10 09:32:55;;;;;;;16.73;5.38;;;819.70;1254.40;;;;;;4840120;29;20065;-82
2021/06/10 09:35:30;;;;;;;6.88;3.80;;;819.20;1280.00;;;;;;4834762;29;20483;-82
2021/06/10 09:38:04;;;;;;;8.80;4.50;;;794.20;1254.40;;;;;;4857391;29;20036;-82
2021/06/10 09:40:31;;;;;;;5.05;3.60;;;794.10;1280.00;;;;;;4837457;29;20030;-82
2021/06/10 09:42:57;;;;;;;6.50;3.97;;;794.10;1280.00;;;;;;4839982;29;20064;-81
2021/06/10 09:45:27;;;;;;;6.35;4.40;;;794.20;1305.60;;;;;;4857334;29;20492;-82
2021/06/10 09:48:00;;;;;;;5.75;4.30;;;794.30;1254.40;;;;;;4859960;29;20037;-82
2021/06/10 09:50:46;;;;;;;11.82;4.65;;;819.20;1203.20;;;;;;4842519;29;20030;-82
2021/06/10 09:53:18;;;;;;;10.43;4.88;;;819.80;1228.80;;;;;;4858371;29;20056;-82
2021/06/10 09:55:53;;;;;;;6.72;4.55;;;845.00;1228.80;;;;;;4839806;29;20375;-81
2021/06/10 09:58:40;;;;;;;7.82;4.35;;;844.90;1228.80;;;;;;4860585;29;20025;-80
2021/06/10 10:01:15;;;;;;;9.95;5.28;;;844.80;1228.80;;;;;;4861349;29;20902;-81
2021/06/10 10:03:46;;;;;;;5.15;3.97;;;844.80;1228.80;;;;;;4844317;29;20100;-82
2021/06/10 10:06:24;;;;;;;8.23;4.75;;;845.20;1126.40;;;;;;4859751;29;20487;-82
2021/06/10 10:08:58;;;;;;;7.47;3.83;;;845.10;1152.00;;;;;;4838337;29;20480;-81
2021/06/10 10:11:25;;;;;;;4.88;3.70;;;845.20;1152.00;;;;;;4841959;29;20041;-82
2021/06/10 10:13:53;;;;;;;7.75;4.03;;;845.70;1152.00;;;;;;4853553;29;20036;-83
2021/06/10 10:16:27;;;;;;;6.35;3.90;;;870.70;1152.00;;;;;;4839646;29;20034;-83
2021/06/10 10:18:54;;;;;;;6.85;4.88;;;870.70;1152.00;;;;;;4842205;29;20584;-83
2021/06/10 10:21:29;;;;;;;7.95;4.40;;;870.50;1152.00;;;;;;4856073;29;20018;-83
2021/06/10 10:23:59;;;;;;;7.95;3.78;;;845.30;1152.00;;;;;;4844866;29;20029;-83
2021/06/10 10:26:25;;;;;;;6.22;3.65;;;845.10;1152.00;;;;;;4845034;29;20029;-82
2021/06/10 10:28:52;;;;;;;4.75;3.67;;;845.30;1126.40;;;;;;4846132;29;20037;-80
2021/06/10 10:31:18;;;;;;;6.30;3.63;;;845.50;1100.80;;;;;;4843891;29;20065;-82
2021/06/10 10:33:45;;;;;;;9.82;4.07;;;845.50;1100.80;;;;;;4845535;29;20065;-82
2021/06/10 10:36:22;;;;;;;6.57;3.75;;;845.30;1126.40;;;;;;4851960;29;20026;-84
2021/06/10 10:38:56;;;;;;;11.45;5.38;;;845.00;1152.00;;;;;;4842342;29;20075;-83
2021/06/10 10:41:22;;;;;;;5.40;4.07;;;820.10;1152.00;;;;;;4841440;29;20026;-81
2021/06/10 10:43:49;;;;;;;5.90;3.55;;;819.90;1152.00;;;;;;4839600;29;20428;-84
2021/06/10 10:46:18;;;;;;;5.55;4.10;;;844.80;1152.00;;;;;;4841538;29;20049;-82
2021/06/10 10:48:50;;;;;;;6.45;3.95;;;845.30;1100.80;;;;;;4846013;29;20049;-81
2021/06/10 10:51:36;;;;;;;6.97;4.22;;;845.50;1075.20;;;;;;4856916;29;20042;-82
2021/06/10 10:54:06;;;;;;;9.17;4.20;;;870.60;1075.20;;;;;;4844578;29;20049;-81
2021/06/10 10:56:38;;;;;;;6.75;4.15;;;870.80;1075.20;;;;;;4845697;29;20312;-80
2021/06/10 10:59:18;;;;;;;6.65;4.28;;;870.90;1075.20;;;;;;4849397;29;20030;-81
2021/06/10 11:02:07;;;;;;;4.28;3.83;;;871.30;1049.60;;;;;;4860057;29;20026;-80
2021/06/10 11:04:49;;;;;;;6.80;4.13;;;896.10;1024.00;;;;;;4840531;29;20053;-80
2021/06/10 11:07:36;;;;;;;8.43;4.93;;;871.10;1049.60;;;;;;4855606;29;20049;-81
2021/06/10 11:10:03;;;;;;;9.50;4.30;;;871.10;1024.00;;;;;;4804079;29;20043;-81
2021/06/10 11:12:43;;;;;;;12.77;3.72;;;870.90;1049.60;;;;;;4789248;29;20043;-81
2021/06/10 11:15:22;;;;;;;7.30;3.88;;;870.90;1049.60;;;;;;4789100;29;20166;-86
2021/06/10 11:17:51;;;;;;;6.07;4.00;;;870.60;1075.20;;;;;;4803654;29;20519;-80
2021/06/10 11:20:18;;;;;;;8.93;4.13;;;845.00;1126.40;;;;;;4782388;30;20409;-80
2021/06/10 11:23:03;;;;;;;6.38;3.10;;;820.10;1100.80;;;;;;4792334;29;20051;-81
2021/06/10 11:25:30;;;;;;;7.10;4.35;;;819.80;1100.80;;;;;;4789361;29;20056;-81
2021/06/10 11:28:10;;;;;;;5.95;4.22;;;819.60;1126.40;;;;;;4804135;29;20038;-81
2021/06/10 11:30:38;;;;;;;7.85;3.58;;;819.30;1126.40;;;;;;4780227;29;20931;-82
2021/06/10 11:33:06;;;;;;;5.80;4.18;;;819.30;1126.40;;;;;;4804214;29;20063;-81
2021/06/10 11:35:44;;;;;;;5.57;3.88;;;819.30;1100.80;;;;;;4803271;29;20093;-81
2021/06/10 11:38:25;;;;;;;12.70;4.07;;;819.20;1100.80;;;;;;4801288;29;20465;-81
2021/06/10 11:41:06;;;;;;;6.05;3.55;;;819.20;1100.80;;;;;;4785515;29;20065;-79
2021/06/10 11:43:38;;;;;;;7.78;4.13;;;819.20;1100.80;;;;;;4799713;29;20027;-80
2021/06/10 11:46:10;;;;;;;8.52;4.05;;;819.20;1075.20;;;;;;4789663;29;20051;-81
2021/06/10 11:48:47;;;;;;;6.07;3.70;;;794.10;1100.80;;;;;;4839434;29;20030;-81
2021/06/10 11:51:20;;;;;;;17.92;5.20;;;793.90;1100.80;;;;;;4840954;29;20017;-82
2021/06/10 11:53:46;;;;;;;5.40;3.65;;;793.60;1126.40;;;;;;4841289;29;20112;-81
2021/06/10 11:56:12;;;;;;;7.30;4.43;;;793.60;1100.80;;;;;;4843174;29;20795;-81
2021/06/10 11:58:41;;;;;;;11.45;3.90;;;793.60;1100.80;;;;;;4860245;29;20025;-81
2021/06/10 12:01:11;;;;;;;5.72;3.35;;;793.70;1126.40;;;;;;4842381;29;20026;-81
2021/06/10 12:03:38;;;;;;;5.57;4.50;;;793.60;1100.80;;;;;;4841816;29;20096;-80
2021/06/10 12:06:08;;;;;;;11.38;4.40;;;793.60;1100.80;;;;;;4854208;29;20037;-80
2021/06/10 12:08:36;;;;;;;5.65;3.78;;;794.10;1100.80;;;;;;4850883;29;20071;-81
2021/06/10 12:11:07;;;;;;;5.95;4.40;;;793.90;1100.80;;;;;;4856531;29;20054;-80
2021/06/10 12:13:35;;;;;;;4.57;4.07;;;793.80;1100.80;;;;;;4839886;29;20034;-80
2021/06/10 12:16:07;;;;;;;6.90;3.72;;;794.10;1152.00;;;;;;4843341;29;20082;-80
2021/06/10 12:18:36;;;;;;;3.88;3.45;;;793.80;1100.80;;;;;;4839517;29;20479;-81
2021/06/10 12:21:04;;;;;;;8.60;3.72;;;793.80;1100.80;;;;;;4841522;29;20413;-81
2021/06/10 12:23:39;;;;;;;8.75;4.40;;;793.60;1152.00;;;;;;4842113;29;20026;-81